Flight Track Log - Related Links

Times and Time Zones

All times are in EDT time to prevent confusion due to time zone crossing. See the VRD913 flight status page for this flight to view local times or setup timezone preferences in your user account.

Time Position Orientation Groundspeed Altitude Reporting Facility
EDT Latitude Longitude Course Direction KTS MPH feet Rate Location/Type
Fri 09:05:06 PM 36.0773 -115.0939 91° East 177 204 4,000  Level FlightAware ADS-B (EPLL / LCJ)
Fri 09:05:42 PM 36.0762 -115.0558 90° East 204 235 4,900 1,500 Climbing FlightAware ADS-B (EPLL / LCJ)
Fri 09:06:18 PM 36.0754 -115.0083 90° East 251 289 5,800 1,667 Climbing FlightAware ADS-B (EPLL / LCJ)
Fri 09:06:54 PM 36.0680 -114.9559 126° Southeast 275 316 6,900 2,250 Climbing FlightAware ADS-B (EPLL / LCJ)
Fri 09:07:30 PM 36.0276 -114.9299 162° South 271 312 8,500 2,789 Climbing FlightAware ADS-B (EPLL / LCJ)
Fri 09:08:05 PM 35.9830 -114.9382 215° Southwest 274 315 10,200 2,486 Climbing FlightAware ADS-B (EPLL / LCJ)
Fri 09:08:40 PM 35.9651 -114.9886 267° West 306 352 11,400 2,630 Climbing FlightAware ADS-B (EPLL / LCJ)
Fri 09:09:18 PM 35.9611 -115.0529 266° West 298 343 13,400 2,420 Climbing FlightAware ADS-B (EPLL / LCJ)
Fri 09:10:39 PM 35.9493 -115.2025 265° West 350 403 16,200 2,205 Climbing FlightAware ADS-B (EPLL / LCJ)
Fri 09:11:15 PM 35.9442 -115.2756 267° West 353 406 17,700 2,219 Climbing FlightAware ADS-B (EPLL / LCJ)
Fri 09:11:52 PM 35.9394 -115.3497 267° West 365 420 18,900 1,964 Climbing FlightAware ADS-B (EPLL / LCJ)
Fri 09:13:05 PM 35.9294 -115.5051 271° West 381 438 21,300 1,964 Climbing FlightAware ADS-B (EPLL / LCJ)
Fri 09:13:42 PM 35.9536 -115.5808 303° West 386 444 22,500 1,973 Climbing FlightAware ADS-B (EPLL / LCJ)
Fri 09:14:18 PM 35.9897 -115.6475 302° West 392 451 23,700 1,890 Climbing FlightAware ADS-B (EPLL / LCJ)
Fri 09:14:55 PM 36.0260 -115.7160 302° West 397 457 24,800 1,750 Climbing FlightAware ADS-B (EPLL / LCJ)
Fri 09:15:30 PM 36.0623 -115.7845 302° West 403 464 25,800 1,667 Climbing FlightAware ADS-B (EPLL / LCJ)
Fri 09:16:07 PM 36.1001 -115.8557 303° West 412 474 26,800 1,583 Climbing FlightAware ADS-B (EPLL / LCJ)
Fri 09:16:42 PM 36.1379 -115.9272 303° West 418 481 27,700 1,606 Climbing FlightAware ADS-B (EPLL / LCJ)
Fri 09:17:18 PM 36.1762 -115.9999 303° West 422 486 28,700 1,431 Climbing FlightAware ADS-B (EPLL / LCJ)
Fri 09:18:31 PM 36.2544 -116.1488 302° West 430 495 30,300 1,333 Climbing FlightAware ADS-B (EPLL / LCJ)
Fri 09:19:06 PM 36.2926 -116.2217 302° West 434 499 31,100 1,500 Climbing FlightAware ADS-B (EPLL / LCJ)
Fri 09:19:43 PM 36.3327 -116.2983 302° West 431 496 32,100 1,667 Climbing FlightAware ADS-B (EPLL / LCJ)
Fri 09:20:18 PM 36.3714 -116.3726 302° West 428 493 33,100 1,606 Climbing FlightAware ADS-B (EPLL / LCJ)
Fri 09:20:54 PM 36.4111 -116.4489 302° West 426 490 34,000 1,667 Climbing FlightAware ADS-B (EPLL / LCJ)
Fri 09:21:30 PM 36.4493 -116.5225 303° West 423 487 35,100 1,514 Climbing FlightAware ADS-B (EPLL / LCJ)
Fri 09:22:45 PM 36.5274 -116.6733 303° West 414 476 36,800 1,095 Climbing FlightAware ADS-B (EPLL / LCJ)
Fri 09:23:58 PM 36.6242 -116.7931 329° Northwest 415 478 37,800 480 Climbing FlightAware ADS-B (EPLL / LCJ)
Fri 09:25:15 PM 36.7524 -116.8907 328° Northwest 421 484 38,000 106 Climbing FlightAware ADS-B (EPLL / LCJ)
Fri 09:25:51 PM 36.8114 -116.9357 328° Northwest 415 478 38,000  Level FlightAware ADS-B (EPLL / LCJ)
Fri 09:26:32 PM 36.8801 -116.9881 328° Northwest 417 480 38,000 53 Level FlightAware ADS-B (EPLL / LCJ)
Fri 09:27:45 PM 37.0029 -117.0821 328° Northwest 418 481 38,100  Climbing FlightAware ADS-B (EPLL / LCJ)
Fri 09:28:21 PM 37.0633 -117.1286 328° Northwest 420 483 38,000 -82 Descending FlightAware ADS-B (EPLL / LCJ)
Fri 09:28:58 PM 37.1243 -117.1756 328° Northwest 418 481 38,000  Level FlightAware ADS-B (EPLL / LCJ)
Fri 09:29:33 PM 37.1850 -117.2224 328° Northwest 419 482 38,000  Level FlightAware ADS-B (EPLL / LCJ)
Fri 09:30:11 PM 37.2476 -117.2708 328° Northwest 419 482 38,000  Level FlightAware ADS-B (EPLL / LCJ)
Fri 09:32:05 PM 37.3338 -117.5087 277° West 409 471 38,000  Level FlightAware ADS-B (EPLL / LCJ)
Fri 09:32:59 PM 37.3453 -117.6144 277° West 410 472 38,000  Level Oakland Center
Fri 09:34:00 PM 37.3589 -117.7569 277° West 409 471 38,000  Level Oakland Center
Fri 09:38:26 PM 37.4210 -118.4194 277° West 418 481 38,000  Level FlightAware ADS-B
Fri 09:40:58 PM 37.4539 -118.7832 276° West 423 487 38,000 25 Level FlightAware ADS-B
Fri 09:42:26 PM 37.4725 -118.9959 276° West 419 482 38,100  Climbing FlightAware ADS-B
Fri 09:43:45 PM 37.4894 -119.1892 276° West 415 478 38,000 -49 Descending FlightAware ADS-B
Fri 09:44:28 PM 37.4974 -119.2827 276° West 413 475 38,000 -1,161 Level FlightAware ADS-B
Fri 09:45:18 PM 37.5082 -119.4103 276° West 415 478 36,200 -2,100 Descending FlightAware ADS-B
Fri 09:45:48 PM 37.5144 -119.4816 276° West 418 481 35,200 -1,913 Descending FlightAware ADS-B
Fri 09:46:27 PM 37.5222 -119.5769 276° West 424 488 34,000 -911 Descending FlightAware ADS-B
Fri 09:47:07 PM 37.5301 -119.6750 276° West 428 493 34,000  Level FlightAware ADS-B
Fri 09:47:47 PM 37.5375 -119.7673 276° West 422 486 34,000  Level FlightAware ADS-B
Fri 09:48:28 PM 37.5447 -119.8565 276° West 425 489 34,000 -77 Level FlightAware ADS-B
Fri 09:49:05 PM 37.5527 -119.9589 276° West 423 487 33,900 -300 Descending FlightAware ADS-B
Fri 09:49:48 PM 37.5613 -120.0676 276° West 422 486 33,600 -506 Descending FlightAware ADS-B
Fri 09:50:28 PM 37.5691 -120.1685 276° West 424 488 33,200 -532 Descending FlightAware ADS-B
Fri 09:51:07 PM 37.5764 -120.2639 276° West 426 490 32,900 -450 Descending FlightAware ADS-B
Fri 09:51:48 PM 37.5836 -120.3580 275° West 426 490 32,600 -456 Descending FlightAware ADS-B
Fri 09:52:26 PM 37.5911 -120.4583 275° West 426 490 32,300 -2,025 Descending FlightAware ADS-B
Fri 09:53:08 PM 37.5989 -120.5637 275° West 440 506 29,900 -3,366 Descending FlightAware ADS-B
Fri 09:53:48 PM 37.6063 -120.6633 275° West 435 501 27,700 -3,375 Descending FlightAware ADS-B
Fri 09:54:28 PM 37.6135 -120.7640 275° West 431 496 25,400 -3,225 Descending FlightAware ADS-B
Fri 09:55:08 PM 37.6205 -120.8632 275° West 422 486 23,400 -2,925 Descending FlightAware ADS-B
Fri 09:55:48 PM 37.6260 -120.9600 269° West 411 473 21,500 -2,700 Descending FlightAware ADS-B
Fri 09:56:28 PM 37.6163 -121.0524 262° West 399 459 19,800 -2,734 Descending FlightAware ADS-B
Fri 09:57:07 PM 37.6060 -121.1437 262° West 397 457 17,900 -2,550 Descending FlightAware ADS-B
Fri 09:57:48 PM 37.5958 -121.2330 262° West 383 441 16,400 -2,132 Descending FlightAware ADS-B
Fri 09:58:23 PM 37.5867 -121.3119 262° West 376 433 15,200 -2,034 Descending FlightAware ADS-B (EPLL / LCJ)
Fri 09:58:47 PM 37.5809 -121.3620 262° West 368 423 14,400 -2,049 Descending FlightAware ADS-B
Fri 09:59:04 PM 37.5867 -121.3119 262° West 364 419 13,800 -2,200 Descending FlightAware ADS-B (EPLL / LCJ)
Fri 09:59:17 PM 37.5736 -121.4260 262° West 360 414 13,300 -2,167 Descending FlightAware ADS-B
Fri 09:59:40 PM 37.5682 -121.4725 262° West 354 407 12,500 -2,000 Descending FlightAware ADS-B (EPLL / LCJ)
Fri 09:59:47 PM 37.5665 -121.4860 262° West 352 405 12,300 -1,636 Descending FlightAware ADS-B
Fri 10:00:13 PM 37.5651 -121.4984 262° West 342 394 11,600 -1,500 Descending FlightAware ADS-B (EDDM / MUC)
Fri 10:00:19 PM 37.5592 -121.5500 262° West 339 390 11,500 -882 Descending FlightAware ADS-B
Fri 10:00:47 PM 37.5529 -121.6040 262° West 317 365 11,100 -800 Descending FlightAware ADS-B
Fri 10:00:49 PM 37.5525 -121.6070 262° West 317 365 11,100  Level FlightAware ADS-B
Fri 10:00:58 PM 37.5503 -121.6240 259° West 307 353 11,100 -353 Level FlightAware ADS-B
Fri 10:01:06 PM 37.5476 -121.6370 254° West 300 345 11,000 -250 Descending FlightAware ADS-B
Fri 10:01:22 PM 37.5439 -121.6518 254° West 281 323 11,000  Level FlightAware ADS-B (EPLL / LCJ)
Fri 10:01:36 PM 37.5364 -121.6840 254° West 271 312 11,000 -400 Level FlightAware ADS-B
Fri 10:01:52 PM 37.5310 -121.7071 253° West 261 300 10,800 -800 Descending FlightAware ADS-B (EDDM / MUC)
Fri 10:02:06 PM 37.5259 -121.7290 253° West 252 290 10,600 -968 Descending FlightAware ADS-B
Fri 10:02:23 PM 37.5209 -121.7495 253° West 250 288 10,300 -1,161 Descending FlightAware ADS-B (EPLL / LCJ)
Fri 10:02:37 PM 37.5161 -121.7700 253° West 248 285 10,000 -1,429 Descending FlightAware ADS-B
Fri 10:02:44 PM 37.5134 -121.7809 253° West 248 285 9,800 -1,200 Descending FlightAware ADS-B (EPLL / LCJ)
Fri 10:02:52 PM 37.5109 -121.7910 253° West 247 284 9,700 -947 Descending FlightAware ADS-B
Fri 10:03:03 PM 37.5075 -121.8055 253° West 242 278 9,500 -1,059 Descending FlightAware ADS-B (EPLL / LCJ)
Fri 10:03:09 PM 37.5055 -121.8140 253° West 238 274 9,400 -571 Descending FlightAware ADS-B
Fri 10:03:24 PM 37.5009 -121.8329 253° West 230 265 9,300 -968 Descending FlightAware ADS-B (EPLL / LCJ)
Fri 10:03:40 PM 37.4959 -121.8540 253° West 229 264 8,900 -1,500 Descending FlightAware ADS-B
Fri 10:03:44 PM 37.4946 -121.8594 253° West 229 264 8,800 -1,385 Descending FlightAware ADS-B (EPLL / LCJ)
Fri 10:03:53 PM 37.4921 -121.8700 254° West 229 264 8,600 -1,125 Descending FlightAware ADS-B
Fri 10:04:00 PM 37.4908 -121.8800 265° West 228 262 8,500 -1,200 Descending FlightAware ADS-B
Fri 10:04:03 PM 37.4907 -121.8840 268° West 227 261 8,400 -2,000 Descending FlightAware ADS-B
Fri 10:04:06 PM 37.4908 -121.8890 272° West 226 260 8,300 -1,200 Descending FlightAware ADS-B
Fri 10:04:18 PM 37.4915 -121.9030 274° West 223 257 8,100 -706 Descending FlightAware ADS-B
Fri 10:04:23 PM 37.4918 -121.9106 273° West 220 253 8,100 -400 Level FlightAware ADS-B (EPLL / LCJ)
Fri 10:04:33 PM 37.4922 -121.9230 272° West 216 249 8,000 -600 Descending FlightAware ADS-B
Fri 10:04:43 PM 37.4925 -121.9353 272° West 208 239 7,900 -400 Descending FlightAware ADS-B (EPLL / LCJ)
Fri 10:04:48 PM 37.4927 -121.9410 272° West 207 238 7,900 -571 Level FlightAware ADS-B
Fri 10:05:04 PM 37.4931 -121.9588 272° West 192 221 7,700 -857 Descending FlightAware ADS-B (EPLL / LCJ)
Fri 10:05:09 PM 37.4933 -121.9650 272° West 193 222 7,600 -1,765 Descending FlightAware ADS-B
Fri 10:05:21 PM 37.4937 -121.9790 272° West 199 229 7,200 -1,714 Descending FlightAware ADS-B
Fri 10:05:23 PM 37.4938 -121.9811 274° West 199 229 7,200 -1,500 Level FlightAware ADS-B (EPLL / LCJ)
Fri 10:05:25 PM 37.4940 -121.9830 276° West 199 229 7,100 -1,714 Descending FlightAware ADS-B
Fri 10:05:30 PM 37.4946 -121.9880 281° West 199 229 7,000 -1,500 Descending FlightAware ADS-B
Fri 10:05:33 PM 37.4957 -121.9918 289° West 199 229 6,900 -1,500 Descending FlightAware ADS-B (EDDM / MUC)
Fri 10:05:38 PM 37.4974 -121.9970 293° West 199 229 6,800 -1,200 Descending FlightAware ADS-B
Fri 10:05:48 PM 37.5009 -122.0065 294° West 197 227 6,600 -1,200 Descending FlightAware ADS-B
Fri 10:05:53 PM 37.5030 -122.0130 293° West 196 226 6,500 -1,125 Descending FlightAware ADS-B
Fri 10:06:04 PM 37.5069 -122.0249 291° West 193 222 6,300 -1,200 Descending FlightAware ADS-B (EPLL / LCJ)
Fri 10:06:08 PM 37.5083 -122.0300 291° West 194 223 6,200 -1,263 Descending FlightAware ADS-B
Fri 10:06:23 PM 37.5132 -122.0447 292° West 189 217 5,900 -1,125 Descending FlightAware ADS-B (EPLL / LCJ)
Fri 10:06:24 PM 37.5134 -122.0450 292° West 188 216 5,900 -1,500 Level FlightAware ADS-B
Fri 10:06:35 PM 37.5170 -122.0560 292° West 186 214 5,600 -1,500 Descending FlightAware ADS-B
Fri 10:06:44 PM 37.5196 -122.0643 292° West 185 213 5,400 -1,500 Descending FlightAware ADS-B (EPLL / LCJ)
Fri 10:06:47 PM 37.5208 -122.0680 292° West 182 209 5,300 -1,286 Descending FlightAware ADS-B
Fri 10:06:58 PM 37.5244 -122.0790 292° West 174 200 5,100 -1,059 Descending FlightAware ADS-B
Fri 10:07:04 PM 37.5259 -122.0838 292° West 171 197 5,000 -1,440 Descending FlightAware ADS-B (EPLL / LCJ)
Fri 10:07:23 PM 37.5316 -122.1020 292° West 166 191 4,500 -1,588 Descending FlightAware ADS-B
Fri 10:07:38 PM 37.5359 -122.1150 292° West 162 186 4,100 -1,500 Descending FlightAware ADS-B
Fri 10:07:43 PM 37.5372 -122.1187 293° West 162 186 4,000 -1,500 Descending FlightAware ADS-B (EPLL / LCJ)
Fri 10:07:54 PM 37.5402 -122.1280 292° West 162 186 3,700 -1,429 Descending FlightAware ADS-B
Fri 10:08:04 PM 37.5428 -122.1361 292° West 161 185 3,500 -800 Descending FlightAware ADS-B (EPLL / LCJ)
Fri 10:08:09 PM 37.5447 -122.1420 292° West 161 185 3,500 -900 Level FlightAware ADS-B
Fri 10:08:24 PM 37.5487 -122.1540 292° West 155 178 3,200 -1,000 Descending FlightAware ADS-B
Fri 10:08:39 PM 37.5527 -122.1660 293° West 152 175 3,000 -600 Descending FlightAware ADS-B
Fri 10:08:44 PM 37.5539 -122.1702 293° West 151 174 3,000 -500 Level FlightAware ADS-B (EPLL / LCJ)
Fri 10:08:51 PM 37.5558 -122.1760 292° West 148 170 2,900 -1,059 Descending FlightAware ADS-B
Fri 10:09:01 PM 37.5582 -122.1840 291° West 145 167 2,700 -1,000 Descending FlightAware ADS-B
Fri 10:09:03 PM 37.5587 -122.1850 291° West 144 166 2,700 -750 Level FlightAware ADS-B (EPLL / LCJ)
Fri 10:09:17 PM 37.5622 -122.1970 291° West 142 163 2,500 -900 Descending FlightAware ADS-B
Fri 10:09:23 PM 37.5636 -122.2015 290° West 144 166 2,400 -800 Descending FlightAware ADS-B (EPLL / LCJ)
Fri 10:09:32 PM 37.5656 -122.2080 290° West 144 166 2,300 -750 Descending FlightAware ADS-B
Fri 10:09:39 PM 37.5673 -122.2140 289° West 141 162 2,200 -750 Descending FlightAware ADS-B
Fri 10:09:40 PM 37.5674 -122.2147 289° West 140 161 2,200  Level FlightAware ADS-B (EPLL / LCJ)
Fri 10:09:45 PM 37.5686 -122.2190 290° West 137 158 2,200  Level FlightAware ADS-B
Fri 10:09:51 PM 37.5696 -122.2220 291° West 134 154 2,200 -429 Level FlightAware ADS-B
Fri 10:09:59 PM 37.5689 -122.2198 292° West 131 151 2,100 -800 Descending FlightAware ADS-B (EPLL / LCJ)
Fri 10:10:06 PM 37.5733 -122.2340 292° West 130 150 2,000 -857 Descending FlightAware ADS-B
Fri 10:10:13 PM 37.5745 -122.2380 287° West 135 155 1,900 -857 Descending FlightAware ADS-B
Fri 10:10:20 PM 37.5757 -122.2440 285° West 141 162 1,800 -600 Descending FlightAware ADS-B
Fri 10:10:23 PM 37.5743 -122.2377 287° West 136 157 1,800  Level FlightAware ADS-B (EPLL / LCJ)
Fri 10:10:28 PM 37.5772 -122.2510 285° West 135 155 1,800  Level FlightAware ADS-B
Fri 10:10:37 PM 37.5784 -122.2560 286° West 123 142 1,800 -400 Level FlightAware ADS-B
Fri 10:10:43 PM 37.5773 -122.2514 286° West 117 135 1,700 -1,286 Descending FlightAware ADS-B (EPLL / LCJ)
Fri 10:10:51 PM 37.5806 -122.2660 287° West 123 142 1,500 -1,385 Descending FlightAware ADS-B
Fri 10:10:56 PM 37.5817 -122.2700 287° West 130 150 1,400 -1,000 Descending FlightAware ADS-B
Fri 10:11:03 PM 37.5828 -122.2750 289° West 128 147 1,300 -500 Descending FlightAware ADS-B
Fri 10:11:08 PM 37.5838 -122.2780 290° West 127 146 1,300  Level FlightAware ADS-B
Fri 10:11:16 PM 37.5854 -122.2830 291° West 128 147 1,300 -429 Level FlightAware ADS-B
Fri 10:11:22 PM 37.5818 -122.2707 287° West 128 147 1,200 -750 Descending FlightAware ADS-B (EPLL / LCJ)
Fri 10:11:24 PM 37.5871 -122.2890 291° West 131 151 1,200 -621 Level FlightAware ADS-B
Fri 10:11:51 PM 37.5933 -122.3080 294° West 128 147 900 -585 Descending FlightAware ADS-B
Fri 10:12:05 PM 37.5970 -122.3180 298° West 132 152 800 -571 Descending FlightAware ADS-B
Fri 10:12:12 PM 37.5995 -122.3236 298° West 131 151 700 -857 Descending FlightAware ADS-B (EDDM / MUC)
Fri 10:12:19 PM 37.6010 -122.3270 297° West 126 145 600 -857 Descending FlightAware ADS-B
Fri 10:12:26 PM 37.6027 -122.3310 297° West 125 144 500 -857 Descending FlightAware ADS-B
Fri 10:12:33 PM 37.6047 -122.3364 296° West 126 145 400 -545 Descending FlightAware ADS-B (EDDM / MUC)
Fri 10:12:37 PM 37.6057 -122.3390 297° West 127 146 400 -400 Level FlightAware ADS-B
Fri 10:12:48 PM 37.6088 -122.3460 297° West 124 143 300 -706 Descending FlightAware ADS-B
Fri 10:12:54 PM 37.6101 -122.3493 298° West 121 139 200 -545 Descending FlightAware ADS-B (EDDM / MUC)
Fri 10:12:59 PM 37.6116 -122.3530 298° West 119 137 200  Level FlightAware ADS-B

Login

Don't have an account? Register now (free) for customized features, flight alerts, and more!